Flight Track Log - Related Links

Times and Time Zones

All times are in EDT time to prevent confusion due to time zone crossing. See the SKW6345 flight status page for this flight to view local times or setup timezone preferences in your user account.

Time Position Orientation Groundspeed Altitude Reporting Facility
EDT Latitude Longitude Course Direction KTS MPH feet Rate Location/Type
Thu 11:14:24 AM 37.6500 -122.3333 38° Northeast 176 203 1,900  Level Northern Cal TRACON
Thu 11:15:18 AM 37.7000 -122.2833 38° Northeast 240 276 3,500 1,947 Climbing Northern Cal TRACON
Thu 11:16:00 AM 37.6237 -122.3987 120° Southeast  Level FlightAware Approximate
Thu 11:16:18 AM 37.7500 -122.2167 47° Northeast 305 351 5,600  Level Northern Cal TRACON
Thu 11:17:00 AM 37.7027 -122.2807 38° Northeast  Level FlightAware Approximate
Thu 11:17:18 AM 37.8167 -122.1500 38° Northeast 289 333 7,800  Level Northern Cal TRACON
Thu 11:18:00 AM 37.8101 -122.1732 38° Northeast  Level FlightAware Approximate
Thu 11:18:12 AM 37.8667 -122.1000 38° Northeast 303 349 9,500  Level Northern Cal TRACON
Thu 11:19:00 AM 37.9176 -122.0657 38° Northeast  Level FlightAware Approximate
Thu 11:19:11 AM 37.9303 -122.0439 35° Northeast 315 362 10,800  Level Oakland Center
Thu 11:20:12 AM 38.0189 -121.9589 37° Northeast 334 384 12,800 1,805 Climbing Oakland Center
Thu 11:21:14 AM 38.0958 -121.8864 37° Northeast 344 396 14,500 1,659 Climbing Oakland Center
Thu 11:22:15 AM 38.1736 -121.8128 37° Northeast 348 400 16,200 1,561 Climbing Oakland Center
Thu 11:23:17 AM 38.2503 -121.7372 38° Northeast 351 404 17,700 1,366 Climbing Oakland Center
Thu 11:24:18 AM 38.3219 -121.6503 44° Northeast 355 409 19,000 1,220 Climbing Oakland Center
Thu 11:25:20 AM 38.3956 -121.5625 43° Northeast 362 417 20,200 927 Climbing Oakland Center
Thu 11:26:21 AM 38.4722 -121.4733 42° Northeast 373 429 20,900 787 Climbing Oakland Center
Thu 11:27:22 AM 38.5528 -121.3775 43° Northeast 391 450 21,800 976 Climbing Oakland Center
Thu 11:28:24 AM 38.6542 -121.2592 42° Northeast 416 479 22,900 927 Climbing Oakland Center
Thu 11:29:25 AM 38.7233 -121.1742 44° Northeast 411 473 23,700 927 Climbing Oakland Center
Thu 11:30:27 AM 38.8242 -121.0528 43° Northeast 414 476 24,800 976 Climbing Oakland Center
Thu 11:31:28 AM 38.9072 -120.9517 43° Northeast 412 474 25,700 885 Climbing Oakland Center
Thu 11:32:29 AM 38.9919 -120.8497 43° Northeast 417 480 26,600 780 Climbing Oakland Center
Thu 11:33:31 AM 39.0772 -120.7464 43° Northeast 420 483 27,300 683 Climbing Oakland Center
Thu 11:34:32 AM 39.1631 -120.6425 43° Northeast 423 487 28,000 634 Climbing Oakland Center
Thu 11:35:34 AM 39.2472 -120.5356 45° Northeast 426 490 28,600 537 Climbing Oakland Center
Thu 11:36:35 AM 39.3350 -120.4297 43° Northeast 430 495 29,100 488 Climbing Oakland Center
Thu 11:37:37 AM 39.4239 -120.3225 43° Northeast 436 502 29,600 488 Climbing Oakland Center
Thu 11:38:38 AM 39.5111 -120.2131 44° Northeast 437 503 30,100 537 Climbing Oakland Center
Thu 11:39:40 AM 39.6169 -120.0847 43° Northeast 444 511 30,700 435 Climbing Oakland Center
Thu 11:40:42 AM 39.7047 -119.9733 44° Northeast 441 507 31,000 146 Climbing Oakland Center
Thu 11:41:43 AM 39.7939 -119.8594 44° Northeast 446 513 31,000  Level Oakland Center
Thu 11:42:44 AM 39.8856 -119.7444 44° Northeast 453 521 31,000  Level Oakland Center
Thu 11:43:46 AM 39.9797 -119.6272 44° Northeast 463 533 31,000  Level Oakland Center
Thu 11:44:47 AM 40.0731 -119.5086 44° Northeast 465 535 31,000  Level Oakland Center
Thu 11:45:48 AM 40.1650 -119.3903 45° Northeast 463 533 31,000  Level Oakland Center
Thu 11:46:50 AM 40.2594 -119.2708 44° Northeast 468 539 31,000  Level Oakland Center
Thu 11:47:51 AM 40.3522 -119.1508 45° Northeast 467 537 31,000  Level Oakland Center
Thu 11:48:53 AM 40.4639 -119.0061 45° Northeast 470 541 31,000  Level Oakland Center
Thu 11:49:54 AM 40.5583 -118.8856 44° Northeast 472 543 31,000  Level Oakland Center
Thu 11:50:56 AM 40.6511 -118.7647 45° Northeast 470 541 31,000  Level Oakland Center
Thu 11:51:57 AM 40.7450 -118.6417 45° Northeast 472 543 31,000  Level Oakland Center
Thu 11:53:02 AM 40.8456 -118.5106 45° Northeast 475 547 31,000  Level Salt Lake Center
Thu 11:54:04 AM 40.9367 -118.3933 44° Northeast 476 548 31,000  Level Salt Lake Center
Thu 11:55:06 AM 41.0414 -118.2533 45° Northeast 477 549 31,000  Level Salt Lake Center
Thu 11:56:08 AM 41.1306 -118.1350 45° Northeast 475 547 31,000  Level Salt Lake Center
Thu 11:57:11 AM 41.2353 -117.9964 45° Northeast 474 545 31,000  Level Salt Lake Center
Thu 11:58:13 AM 41.3250 -117.8758 45° Northeast 476 548 31,000  Level Salt Lake Center
Thu 11:59:15 AM 41.4283 -117.7358 45° Northeast 474 545 31,000  Level Salt Lake Center
Thu 12:00:17 PM 41.5178 -117.6150 45° Northeast 475 547 31,000  Level Salt Lake Center
Thu 12:01:19 PM 41.6069 -117.4942 45° Northeast 475 547 31,000  Level Salt Lake Center
Thu 12:02:21 PM 41.7106 -117.3536 45° Northeast 474 545 31,000  Level Salt Lake Center
Thu 12:03:23 PM 41.8000 -117.2272 46° Northeast 476 548 31,000  Level Salt Lake Center
Thu 12:04:25 PM 41.9025 -117.0869 46° Northeast 470 541 31,000  Level Salt Lake Center
Thu 12:05:27 PM 41.9914 -116.9625 46° Northeast 480 552 31,000  Level Salt Lake Center
Thu 12:06:29 PM 42.0942 -116.8203 46° Northeast 474 545 31,000  Level Salt Lake Center
Thu 12:07:31 PM 42.1919 -116.6808 47° Northeast 485 558 31,000  Level Salt Lake Center
Thu 12:08:33 PM 42.2806 -116.5575 46° Northeast 479 551 31,000  Level Salt Lake Center
Thu 12:09:35 PM 42.3836 -116.4139 46° Northeast 478 550 31,000  Level Salt Lake Center
Thu 12:10:37 PM 42.4719 -116.2894 46° Northeast 479 551 31,000  Level Salt Lake Center
Thu 12:11:39 PM 42.5600 -116.1647 46° Northeast 478 550 31,000  Level Salt Lake Center
Thu 12:12:41 PM 42.6622 -116.0186 46° Northeast 478 550 31,000  Level Salt Lake Center
Thu 12:13:43 PM 42.7486 -115.8925 47° Northeast 477 549 31,000  Level Salt Lake Center
Thu 12:14:45 PM 42.8508 -115.7464 46° Northeast 478 550 31,000  Level Salt Lake Center
Thu 12:15:47 PM 42.9386 -115.6197 47° Northeast 479 551 31,000  Level Salt Lake Center
Thu 12:16:49 PM 43.0417 -115.4692 47° Northeast 483 556 31,000  Level Salt Lake Center
Thu 12:17:51 PM 43.1283 -115.3436 47° Northeast 478 550 31,000  Level Salt Lake Center
Thu 12:18:53 PM 43.2303 -115.1950 47° Northeast 479 551 31,000  Level Salt Lake Center
Thu 12:19:55 PM 43.3169 -115.0672 47° Northeast 478 550 31,000  Level Salt Lake Center
Thu 12:21:00 PM 43.4149 -114.9209 47° Northeast  Level FlightAware Approximate
Thu 12:21:59 PM 43.5044 -114.7881 47° Northeast 480 552 31,000  Level Salt Lake Center
Thu 12:23:01 PM 43.6061 -114.6364 47° Northeast 484 557 31,000  Level Salt Lake Center
Thu 12:24:03 PM 43.6925 -114.5067 47° Northeast 481 554 31,000  Level Salt Lake Center
Thu 12:25:05 PM 43.7931 -114.3553 47° Northeast 478 550 31,000  Level Salt Lake Center
Thu 12:26:07 PM 43.8789 -114.2233 48° Northeast 479 551 31,000  Level Salt Lake Center
Thu 12:27:09 PM 43.9794 -114.0694 48° Northeast 482 555 31,000  Level Salt Lake Center
Thu 12:28:11 PM 44.0653 -113.9386 48° Northeast 481 554 31,000  Level Salt Lake Center
Thu 12:29:13 PM 44.1619 -113.7833 49° Northeast 477 549 31,000  Level Salt Lake Center
Thu 12:30:15 PM 44.2478 -113.6511 48° Northeast 479 551 31,000  Level Salt Lake Center
Thu 12:31:18 PM 44.3344 -113.5172 48° Northeast 484 557 31,000  Level Salt Lake Center
Thu 12:32:20 PM 44.4331 -113.3614 48° Northeast 481 554 31,000  Level Salt Lake Center
Thu 12:33:22 PM 44.5186 -113.2275 48° Northeast 480 552 31,000  Level Salt Lake Center
Thu 12:34:24 PM 44.6194 -113.0697 48° Northeast 486 559 31,000  Level Salt Lake Center
Thu 12:35:26 PM 44.7025 -112.9344 49° Northeast 481 554 31,000  Level Salt Lake Center
Thu 12:36:28 PM 44.8017 -112.7775 48° Northeast 479 551 31,000  Level Salt Lake Center
Thu 12:37:30 PM 44.8853 -112.6414 49° Northeast 480 552 31,000 -339 Level Salt Lake Center
Thu 12:38:32 PM 44.9842 -112.4822 49° Northeast 481 554 30,300 -1,790 Descending Salt Lake Center
Thu 12:39:34 PM 45.0694 -112.3444 49° Northeast 484 557 27,300 -2,855 Descending Salt Lake Center
Thu 12:40:36 PM 45.1533 -112.2069 49° Northeast 481 554 24,400 -3,145 Descending Salt Lake Center
Thu 12:41:38 PM 45.2514 -112.0450 49° Northeast 462 532 20,800 -3,194 Descending Salt Lake Center
Thu 12:42:40 PM 45.3308 -111.9136 49° Northeast 445 512 17,800 -2,758 Descending Salt Lake Center
Thu 12:43:42 PM 45.4072 -111.7883 49° Northeast 427 491 15,100 -2,710 Descending Salt Lake Center
Thu 12:44:44 PM 45.4800 -111.6672 49° Northeast 408 470 12,200 -1,500 Descending Salt Lake Center
Thu 12:45:46 PM 45.5467 -111.5567 49° Northeast 374 430 12,000 -871 Descending Salt Lake Center
Thu 12:46:48 PM 45.6047 -111.4603 49° Northeast 337 388 10,400 -1,452 Descending Salt Lake Center
Thu 12:47:50 PM 45.6631 -111.3750 46° Northeast 317 365 9,000 -1,065 Descending Salt Lake Center
Thu 12:48:52 PM 45.7253 -111.2958 42° Northeast 267 307 8,200 -774 Descending Salt Lake Center

Login

Don't have an account? Register now (free) for customized features, flight alerts, and more!